Terminal Aerodrome Forecast
Issued by NWS

Home | Current Version | Previous Version | Text Only | Print | Product List | Glossary On
Versions: 1 2 3 4 5 6 7 8 9 10 11 12 13 14 15 16 17 18 19 20 21 22 23 24 25 26 27 28 29 30
000
FTUS41 KBUF 281731
TAFJHW
TAF
KJHW 281731Z 2818/2918 25004KT P6SM BKN035
     FM282300 36004KT P6SM FEW035
     FM290000 VRB03KT P6SM FEW200
     FM290400 VRB03KT 2SM BR SCT002
     FM290600 00000KT 1/2SM FG OVC002
     FM291200 18005KT 2SM BR BKN002
     FM291400 20004KT P6SM BKN200
     FM291500 25004KT P6SM BKN140
     FM291700 VRB03KT P6SM BKN045
      AMD LTD TO CLD VIS AND WIND=

USA.gov is the U.S. government's official web portal to all federal, state and local government web resources and services.